createdAt,value
2023-03-10T00:00:21.622Z,98831.53
2023-03-10T00:02:50.106Z,98828.84
2023-03-10T00:05:18.550Z,98834.94
2023-03-10T00:07:45.662Z,98826.31
2023-03-10T00:10:14.238Z,98828.00
2023-03-10T00:12:40.744Z,98819.22
2023-03-10T00:15:08.443Z,98822.88
2023-03-10T00:17:35.106Z,98818.56
2023-03-10T00:20:01.651Z,98810.72
2023-03-10T00:22:28.153Z,98813.25
2023-03-10T00:24:54.654Z,98811.50
2023-03-10T00:27:21.157Z,98817.72
2023-03-10T00:29:51.451Z,98804.59
2023-03-10T00:32:18.570Z,98810.81
2023-03-10T00:34:45.204Z,98802.19
2023-03-10T00:37:11.755Z,98810.72
2023-03-10T00:39:38.320Z,98816.84
2023-03-10T00:42:05.147Z,98809.91
2023-03-10T00:44:31.653Z,98811.56
2023-03-10T00:46:58.275Z,98807.22
2023-03-10T00:49:24.844Z,98802.84
2023-03-10T00:51:51.332Z,98793.94
2023-03-10T00:54:17.825Z,98795.78
2023-03-10T00:56:44.270Z,98793.94
2023-03-10T00:59:12.303Z,98789.56
2023-03-10T01:01:40.950Z,98796.41
2023-03-10T01:04:09.083Z,98792.06
2023-03-10T01:06:35.640Z,98785.06
2023-03-10T01:09:03.273Z,98790.13
2023-03-10T01:11:30.219Z,98781.31
2023-03-10T01:13:58.744Z,98776.25
2023-03-10T01:16:25.897Z,98778.00
2023-03-10T01:18:52.627Z,98778.84
2023-03-10T01:21:24.693Z,98767.56
2023-03-10T01:23:51.720Z,98769.31
2023-03-10T01:26:19.099Z,98763.81
2023-03-10T01:28:46.402Z,98758.97
2023-03-10T01:31:13.212Z,98762.34
2023-03-10T01:33:41.101Z,98763.28
2023-03-10T01:36:12.774Z,98758.06
2023-03-10T01:38:39.741Z,98754.50
2023-03-10T01:41:06.621Z,98752.47
2023-03-10T01:43:37.579Z,98749.09
2023-03-10T01:46:04.112Z,98748.16
2023-03-10T01:48:34.388Z,98755.06
2023-03-10T01:51:01.337Z,98739.41
2023-03-10T01:53:28.572Z,98719.44
2023-03-10T01:55:59.791Z,98717.63
2023-03-10T01:58:29.815Z,98720.00
2023-03-10T02:00:56.456Z,98716.56
2023-03-10T02:03:25.249Z,98717.31
2023-03-10T02:05:53.361Z,98712.09
2023-03-10T02:08:20.149Z,98714.63
2023-03-10T02:10:46.885Z,98705.06
2023-03-10T02:13:13.369Z,98718.03
2023-03-10T02:15:40.774Z,98708.50
2023-03-10T02:18:09.897Z,98698.97
2023-03-10T02:20:57.209Z,98699.75
2023-03-10T02:23:31.917Z,98701.56
2023-03-10T02:26:10.061Z,98695.44
2023-03-10T02:28:36.581Z,98685.84
2023-03-10T02:31:03.340Z,98684.09
2023-03-10T02:33:31.673Z,98675.41
2023-03-10T02:36:14.467Z,98687.63
2023-03-10T02:38:41.021Z,98694.47
2023-03-10T02:41:17.337Z,98690.06
2023-03-10T02:43:43.859Z,98679.78
2023-03-10T02:46:10.524Z,98684.00
2023-03-10T02:48:38.956Z,98684.84
2023-03-10T02:51:09.911Z,98681.25
2023-03-10T02:53:36.797Z,98676.03
2023-03-10T02:56:03.403Z,98681.31
2023-03-10T02:58:31.525Z,98677.03
2023-03-10T03:00:58.686Z,98669.97
2023-03-10T03:03:25.250Z,98677.94
2023-03-10T03:05:52.060Z,98669.19
2023-03-10T03:08:19.153Z,98660.59
2023-03-10T03:10:46.168Z,98665.81
2023-03-10T03:13:12.941Z,98665.91
2023-03-10T03:15:39.543Z,98657.44
2023-03-10T03:18:06.329Z,98666.03
2023-03-10T03:20:33.231Z,98663.41
2023-03-10T03:22:59.941Z,98662.66
2023-03-10T03:25:28.298Z,98665.41
2023-03-10T03:27:55.258Z,98667.03
2023-03-10T03:30:25.443Z,98678.31
2023-03-10T03:32:53.201Z,98674.78
2023-03-10T03:35:24.686Z,98660.72
2023-03-10T03:37:52.422Z,98667.66
2023-03-10T03:40:19.323Z,98657.34
2023-03-10T03:42:50.952Z,98667.72
2023-03-10T03:45:20.576Z,98658.19
2023-03-10T03:47:47.364Z,98651.22
2023-03-10T03:50:16.035Z,98637.31
2023-03-10T03:52:42.882Z,98637.31
2023-03-10T03:55:10.523Z,98619.81
2023-03-10T03:57:37.522Z,98625.03
2023-03-10T04:00:09.849Z,98634.78
2023-03-10T04:02:36.479Z,98640.00
2023-03-10T04:05:03.376Z,98644.38
2023-03-10T04:07:29.929Z,98645.22
2023-03-10T04:09:56.521Z,98640.00
2023-03-10T04:12:23.231Z,98635.41
2023-03-10T04:14:49.898Z,98633.88
2023-03-10T04:17:16.828Z,98634.69
2023-03-10T04:19:45.886Z,98629.47
2023-03-10T04:22:14.118Z,98638.94
2023-03-10T04:24:40.636Z,98643.41
2023-03-10T04:27:09.559Z,98644.22
2023-03-10T04:29:36.939Z,98647.63
2023-03-10T04:32:05.824Z,98636.31
2023-03-10T04:34:33.092Z,98644.06
2023-03-10T04:37:00.087Z,98648.63
2023-03-10T04:39:26.625Z,98651.97
2023-03-10T04:41:53.128Z,98646.84
2023-03-10T04:44:30.435Z,98636.31
2023-03-10T04:46:58.253Z,98632.09
2023-03-10T04:49:24.912Z,98626.88
2023-03-10T04:51:51.409Z,98625.97
2023-03-10T04:54:18.122Z,98621.88
2023-03-10T04:56:44.764Z,98628.88
2023-03-10T04:59:11.341Z,98631.41
2023-03-10T05:01:37.931Z,98633.25
2023-03-10T05:04:05.309Z,98628.09
2023-03-10T05:06:31.872Z,98629.03
2023-03-10T05:08:58.478Z,98624.09
2023-03-10T05:11:25.026Z,98621.56
2023-03-10T05:13:51.648Z,98627.78
2023-03-10T05:16:20.770Z,98625.03
2023-03-10T05:18:47.598Z,98626.94
2023-03-10T05:21:14.562Z,98625.16
2023-03-10T05:23:41.242Z,98623.59
2023-03-10T05:26:09.103Z,98621.81
2023-03-10T05:28:36.140Z,98621.97
2023-03-10T05:31:09.222Z,98622.31
2023-03-10T05:33:35.803Z,98624.00
2023-03-10T05:36:07.450Z,98625.88
2023-03-10T05:38:34.144Z,98629.31
2023-03-10T05:41:01.168Z,98623.94
2023-03-10T05:43:28.057Z,98621.09
2023-03-10T05:45:56.400Z,98626.53
2023-03-10T05:48:23.325Z,98624.72
2023-03-10T05:51:00.647Z,98628.31
2023-03-10T05:53:27.919Z,98624.78
2023-03-10T05:55:55.398Z,98622.16
2023-03-10T05:58:22.959Z,98632.59
2023-03-10T06:00:49.683Z,98628.25
2023-03-10T06:03:16.779Z,98636.91
2023-03-10T06:05:43.417Z,98626.47
2023-03-10T06:08:09.992Z,98632.59
2023-03-10T06:10:36.567Z,98637.47
2023-03-10T06:13:03.143Z,98635.00
2023-03-10T06:15:30.342Z,98635.00
2023-03-10T06:17:56.916Z,98634.22
2023-03-10T06:20:23.446Z,98635.84
2023-03-10T06:22:51.964Z,98632.47
2023-03-10T06:25:18.823Z,98629.00
2023-03-10T06:27:45.354Z,98636.16
2023-03-10T06:30:12.144Z,98632.59
2023-03-10T06:32:38.783Z,98636.97
2023-03-10T06:35:05.996Z,98634.28
2023-03-10T06:37:32.569Z,98636.16
2023-03-10T06:39:59.038Z,98643.91
2023-03-10T06:42:25.634Z,98638.59
2023-03-10T06:44:55.542Z,98641.97
2023-03-10T06:47:22.057Z,98638.38
2023-03-10T06:49:48.585Z,98634.00
2023-03-10T06:52:15.208Z,98636.69
2023-03-10T06:54:41.772Z,98641.06
2023-03-10T06:57:08.442Z,98634.78
2023-03-10T06:59:35.221Z,98627.66
2023-03-10T07:02:01.858Z,98627.66
2023-03-10T07:04:28.454Z,98639.69
2023-03-10T07:06:55.029Z,98638.13
2023-03-10T07:09:21.569Z,98639.75
2023-03-10T07:11:48.347Z,98640.53
2023-03-10T07:14:14.871Z,98643.22
2023-03-10T07:16:41.462Z,98640.16
2023-03-10T07:19:07.989Z,98637.47
2023-03-10T07:21:34.553Z,98633.72
2023-03-10T07:24:01.115Z,98642.25
2023-03-10T07:26:27.752Z,98643.91
2023-03-10T07:28:54.389Z,98645.69
2023-03-10T07:31:21.316Z,98645.69
2023-03-10T07:33:49.362Z,98636.88
2023-03-10T07:36:17.784Z,98639.63
2023-03-10T07:38:44.877Z,98637.78
2023-03-10T07:41:21.131Z,98647.41
2023-03-10T07:43:51.145Z,98647.41
2023-03-10T07:46:17.748Z,98652.38
2023-03-10T07:48:44.415Z,98658.31
2023-03-10T07:51:12.479Z,98652.94
2023-03-10T07:53:39.193Z,98657.84
2023-03-10T07:56:07.647Z,98645.00
2023-03-10T07:58:34.654Z,98663.13
2023-03-10T08:01:01.640Z,98656.91
2023-03-10T08:03:28.823Z,98655.13
2023-03-10T08:05:55.735Z,98655.06
2023-03-10T08:08:23.178Z,98651.69
2023-03-10T08:10:49.848Z,98653.41
2023-03-10T08:13:16.460Z,98654.47
2023-03-10T08:15:43.009Z,98647.63
2023-03-10T08:18:09.768Z,98656.38
2023-03-10T08:20:36.798Z,98656.91
2023-03-10T08:23:04.243Z,98650.84
2023-03-10T08:25:31.118Z,98647.53
2023-03-10T08:27:57.714Z,98653.53
2023-03-10T08:30:24.304Z,98661.31
2023-03-10T08:32:51.004Z,98660.44
2023-03-10T08:35:18.186Z,98664.84
2023-03-10T08:37:44.844Z,98666.44
2023-03-10T08:40:14.071Z,98662.75
2023-03-10T08:42:40.821Z,98659.44
2023-03-10T08:45:08.821Z,98665.66
2023-03-10T08:47:35.960Z,98669.91
2023-03-10T08:50:02.916Z,98670.06
2023-03-10T08:52:29.442Z,98675.13
2023-03-10T08:54:58.191Z,98674.72
2023-03-10T08:57:26.504Z,98670.28
2023-03-10T08:59:53.139Z,98671.97
2023-03-10T09:02:22.054Z,98675.34
2023-03-10T09:04:50.373Z,98676.81
2023-03-10T09:07:17.694Z,98677.03
2023-03-10T09:09:44.470Z,98686.25
2023-03-10T09:12:11.876Z,98685.84
2023-03-10T09:14:38.520Z,98688.59
2023-03-10T09:17:05.807Z,98693.28
2023-03-10T09:19:32.355Z,98691.13
2023-03-10T09:21:59.395Z,98687.63
2023-03-10T09:24:26.226Z,98680.22
2023-03-10T09:26:52.780Z,98686.53
2023-03-10T09:29:20.347Z,98682.22
2023-03-10T09:31:49.664Z,98686.69
2023-03-10T09:34:16.294Z,98686.94
2023-03-10T09:36:42.904Z,98696.59
2023-03-10T09:39:09.625Z,98695.84
2023-03-10T09:41:42.210Z,98702.81
2023-03-10T09:44:17.986Z,98710.06
2023-03-10T09:47:09.579Z,98700.28
2023-03-10T09:49:39.066Z,98703.97
2023-03-10T09:52:26.440Z,98705.75
2023-03-10T09:55:13.153Z,98712.13
2023-03-10T09:57:40.270Z,98711.06
2023-03-10T10:00:11.685Z,98724.88
2023-03-10T10:02:41.679Z,98722.22
2023-03-10T10:05:31.443Z,98717.81
2023-03-10T10:08:00.541Z,98722.34
2023-03-10T10:10:29.899Z,98724.97
2023-03-10T10:13:01.403Z,98731.56
2023-03-10T10:15:28.994Z,98736.59
2023-03-10T10:18:19.656Z,98741.81
2023-03-10T10:20:59.233Z,98737.50
2023-03-10T10:23:43.125Z,98749.25
2023-03-10T10:26:17.830Z,98743.16
2023-03-10T10:28:51.042Z,98742.25
2023-03-10T10:31:24.452Z,98743.78
2023-03-10T10:33:58.588Z,98740.44
2023-03-10T10:36:30.853Z,98750.34
2023-03-10T10:38:57.887Z,98741.66
2023-03-10T10:41:27.209Z,98748.63
2023-03-10T10:43:56.981Z,98751.56
2023-03-10T10:46:27.713Z,98756.16
2023-03-10T10:49:05.125Z,98757.53
2023-03-10T10:51:36.205Z,98763.06
2023-03-10T10:54:06.307Z,98768.22
2023-03-10T10:56:32.962Z,98776.38
2023-03-10T10:59:19.609Z,98780.13
2023-03-10T11:01:49.352Z,98778.56
2023-03-10T11:04:17.443Z,98783.06
2023-03-10T11:06:44.270Z,98787.31
2023-03-10T11:09:15.142Z,98779.69
2023-03-10T11:11:50.084Z,98776.84
2023-03-10T11:14:16.594Z,98773.53
2023-03-10T11:17:05.178Z,98780.13
2023-03-10T11:19:35.859Z,98780.63
2023-03-10T11:22:07.581Z,98775.00
2023-03-10T11:24:40.324Z,98774.84
2023-03-10T11:27:16.983Z,98775.63
2023-03-10T11:30:06.880Z,98773.06
2023-03-10T11:33:05.615Z,98771.31
2023-03-10T11:35:38.309Z,98778.84
2023-03-10T11:38:37.689Z,98785.53
2023-03-10T11:41:08.352Z,98785.53
2023-03-10T11:43:55.303Z,98785.59
2023-03-10T11:46:29.926Z,98788.22
2023-03-10T11:49:10.832Z,98794.50
2023-03-10T11:51:49.949Z,98803.66
2023-03-10T11:54:35.086Z,98810.03
2023-03-10T11:57:12.989Z,98810.41
2023-03-10T11:59:47.715Z,98816.19
2023-03-10T12:02:24.776Z,98817.75
2023-03-10T12:05:01.878Z,98804.72
2023-03-10T12:07:41.501Z,98804.22
2023-03-10T12:10:11.394Z,98804.44
2023-03-10T12:12:43.196Z,98800.75
2023-03-10T12:15:24.879Z,98809.75
2023-03-10T12:17:53.037Z,98803.13
2023-03-10T12:20:19.673Z,98818.81
2023-03-10T12:23:00.367Z,98824.13
2023-03-10T12:25:29.978Z,98833.19
2023-03-10T12:28:24.684Z,98850.28
2023-03-10T12:31:00.476Z,98852.53
2023-03-10T12:33:39.771Z,98853.38
2023-03-10T12:36:32.564Z,98879.63
2023-03-10T12:39:18.759Z,98875.47
2023-03-10T12:41:53.082Z,98875.69
2023-03-10T12:44:22.836Z,98887.22
2023-03-10T12:47:00.920Z,98903.72
2023-03-10T12:49:46.073Z,98921.84
2023-03-10T12:52:36.771Z,98945.13
2023-03-10T12:55:05.524Z,98959.38
2023-03-10T12:57:56.110Z,98971.25
2023-03-10T13:00:31.326Z,98989.06
2023-03-10T13:03:02.340Z,99005.75
2023-03-10T13:05:35.245Z,99023.69
2023-03-10T13:08:13.483Z,99031.78
2023-03-10T13:10:40.394Z,99062.66
2023-03-10T13:13:11.729Z,99088.13
2023-03-10T13:15:38.299Z,99096.91
2023-03-10T13:18:16.598Z,99134.03
2023-03-10T13:20:43.402Z,99154.81
2023-03-10T13:23:27.754Z,99149.88
2023-03-10T13:25:58.512Z,99182.78
2023-03-10T13:28:26.530Z,99194.69
2023-03-10T13:31:12.222Z,99192.97
2023-03-10T13:33:50.365Z,99216.53
2023-03-10T13:36:36.280Z,99246.56
2023-03-10T13:39:15.920Z,99262.94
2023-03-10T13:42:03.485Z,99290.31
2023-03-10T13:44:40.915Z,99313.47
2023-03-10T13:47:24.460Z,99341.09
2023-03-10T13:49:53.110Z,99339.31
2023-03-10T13:52:25.511Z,99331.16
2023-03-10T13:54:52.270Z,99344.34
2023-03-10T13:57:31.397Z,99336.34
2023-03-10T13:59:58.574Z,99342.31
2023-03-10T14:02:31.322Z,99344.22
2023-03-10T14:04:58.439Z,99374.84
2023-03-10T14:07:30.286Z,99403.34
2023-03-10T14:10:05.943Z,99429.56
2023-03-10T14:12:39.532Z,99454.28
2023-03-10T14:15:09.778Z,99471.53
2023-03-10T14:17:37.733Z,99493.34
2023-03-10T14:20:05.468Z,99510.13
2023-03-10T14:22:36.884Z,99520.66
2023-03-10T14:25:13.487Z,99545.47
2023-03-10T14:27:42.327Z,99558.53
2023-03-10T14:30:18.105Z,99566.53
2023-03-10T14:32:44.839Z,99562.16
2023-03-10T14:35:12.862Z,99575.19
2023-03-10T14:37:39.382Z,99596.75
2023-03-10T14:40:06.978Z,99596.81
2023-03-10T14:42:34.005Z,99618.63
2023-03-10T14:45:06.000Z,99624.63
2023-03-10T14:47:32.844Z,99643.63
2023-03-10T14:50:00.648Z,99644.69
2023-03-10T14:52:27.548Z,99658.84
2023-03-10T14:54:54.076Z,99658.19
2023-03-10T14:57:21.744Z,99677.47
2023-03-10T14:59:49.091Z,99686.41
2023-03-10T15:02:25.694Z,99700.34
2023-03-10T15:04:52.418Z,99715.22
2023-03-10T15:07:19.277Z,99710.38
2023-03-10T15:09:45.889Z,99716.59
2023-03-10T15:12:15.066Z,99712.44
2023-03-10T15:14:50.872Z,99747.06
2023-03-10T15:17:17.386Z,99773.06
2023-03-10T15:19:43.912Z,99778.06
2023-03-10T15:22:10.466Z,99798.06
2023-03-10T15:24:37.148Z,99793.69
2023-03-10T15:27:04.502Z,99822.06
2023-03-10T15:29:31.040Z,99815.94
2023-03-10T15:31:58.227Z,99823.53
2023-03-10T15:34:24.774Z,99821.66
2023-03-10T15:36:51.261Z,99857.06
2023-03-10T15:39:30.622Z,99883.00
2023-03-10T15:41:57.457Z,99906.22
2023-03-10T15:44:23.974Z,99894.72
2023-03-10T15:46:54.716Z,99919.84
2023-03-10T15:49:21.418Z,99934.22
2023-03-10T15:51:48.115Z,99936.59
2023-03-10T15:54:14.922Z,99931.53
2023-03-10T15:56:41.447Z,99926.63
2023-03-10T15:59:08.323Z,99910.66
2023-03-10T16:01:35.142Z,99910.06
2023-03-10T16:04:05.697Z,99924.09
2023-03-10T16:06:33.729Z,99925.41
2023-03-10T16:09:00.759Z,99953.03
2023-03-10T16:11:27.506Z,99975.59
2023-03-10T16:13:54.032Z,99987.34
2023-03-10T16:16:23.452Z,99980.66
2023-03-10T16:18:50.249Z,100001.56
2023-03-10T16:21:18.173Z,100006.84
2023-03-10T16:23:45.151Z,100035.78
2023-03-10T16:26:11.704Z,100018.53
2023-03-10T16:28:41.149Z,100032.66
2023-03-10T16:31:08.471Z,100029.63
2023-03-10T16:33:35.230Z,100053.38
2023-03-10T16:36:03.860Z,100054.38
2023-03-10T16:38:30.752Z,100055.28
2023-03-10T16:40:58.004Z,100074.44
2023-03-10T16:43:28.303Z,100084.88
2023-03-10T16:46:30.001Z,100092.97
2023-03-10T16:48:57.228Z,100101.03
2023-03-10T16:51:37.753Z,100095.69
2023-03-10T16:54:10.382Z,100106.97
2023-03-10T16:56:41.722Z,100118.09
2023-03-10T16:59:08.969Z,100122.41
2023-03-10T17:01:35.521Z,100137.13
2023-03-10T17:04:02.253Z,100150.19
2023-03-10T17:06:31.863Z,100160.56
2023-03-10T17:08:59.476Z,100167.59
2023-03-10T17:11:28.313Z,100176.41
2023-03-10T17:13:57.063Z,100186.84
2023-03-10T17:16:28.254Z,100201.94
2023-03-10T17:19:00.179Z,100199.72
2023-03-10T17:21:28.904Z,100202.41
2023-03-10T17:23:55.927Z,100215.44
2023-03-10T17:26:22.542Z,100214.56
2023-03-10T17:28:50.798Z,100216.22
2023-03-10T17:31:26.335Z,100227.47
2023-03-10T17:33:54.308Z,100237.75
2023-03-10T17:36:21.173Z,100248.97
2023-03-10T17:38:47.921Z,100238.47
2023-03-10T17:41:16.039Z,100261.84
2023-03-10T17:43:42.932Z,100248.84
2023-03-10T17:46:13.978Z,100269.66
2023-03-10T17:48:41.126Z,100267.88
2023-03-10T17:51:08.377Z,100269.53
2023-03-10T17:53:34.961Z,100294.66
2023-03-10T17:56:05.863Z,100286.84
2023-03-10T17:58:33.291Z,100297.22
2023-03-10T18:01:15.390Z,100309.28
2023-03-10T18:03:42.255Z,100317.88
2023-03-10T18:06:17.560Z,100359.44
2023-03-10T18:08:44.201Z,100366.84
2023-03-10T18:11:11.191Z,100368.28
2023-03-10T18:13:37.852Z,100343.44
2023-03-10T18:16:05.872Z,100349.38
2023-03-10T18:18:32.637Z,100343.19
2023-03-10T18:20:59.254Z,100341.38
2023-03-10T18:23:25.851Z,100350.88
2023-03-10T18:25:52.588Z,100349.06
2023-03-10T18:28:19.734Z,100357.66
2023-03-10T18:30:49.275Z,100367.97
2023-03-10T18:33:16.277Z,100373.06
2023-03-10T18:35:45.157Z,100362.59
2023-03-10T18:38:12.554Z,100373.03
2023-03-10T18:40:39.504Z,100381.72
2023-03-10T18:43:06.047Z,100399.00
2023-03-10T18:45:32.567Z,100402.38
2023-03-10T18:47:59.113Z,100403.19
2023-03-10T18:50:25.671Z,100413.63
2023-03-10T18:52:52.204Z,100414.47
2023-03-10T18:55:18.916Z,100409.16
2023-03-10T18:57:45.443Z,100418.69
2023-03-10T19:00:15.052Z,100403.03
2023-03-10T19:02:42.419Z,100428.97
2023-03-10T19:05:15.899Z,100428.00
2023-03-10T19:07:42.469Z,100455.81
2023-03-10T19:10:12.724Z,100443.63
2023-03-10T19:12:40.141Z,100459.19
2023-03-10T19:15:09.112Z,100454.78
2023-03-10T19:17:37.707Z,100475.53
2023-03-10T19:20:07.989Z,100471.94
2023-03-10T19:22:35.352Z,100477.88
2023-03-10T19:25:03.565Z,100489.00
2023-03-10T19:27:30.979Z,100490.72
2023-03-10T19:29:58.046Z,100501.97
2023-03-10T19:32:25.268Z,100493.16
2023-03-10T19:34:51.963Z,100496.66
2023-03-10T19:37:18.663Z,100494.16
2023-03-10T19:39:45.268Z,100499.34
2023-03-10T19:42:11.812Z,100497.69
2023-03-10T19:44:39.493Z,100501.31
2023-03-10T19:47:06.859Z,100507.44
2023-03-10T19:49:34.219Z,100504.78
2023-03-10T19:52:01.605Z,100509.00
2023-03-10T19:54:28.200Z,100514.97
2023-03-10T19:56:54.837Z,100513.19
2023-03-10T19:59:21.361Z,100525.44
2023-03-10T20:01:49.378Z,100524.50
2023-03-10T20:04:16.154Z,100522.75
2023-03-10T20:06:42.728Z,100535.75
2023-03-10T20:09:10.626Z,100543.63
2023-03-10T20:11:38.831Z,100549.75
2023-03-10T20:14:06.022Z,100547.25
2023-03-10T20:16:33.443Z,100549.88
2023-03-10T20:19:00.260Z,100547.22
2023-03-10T20:21:27.585Z,100548.13
2023-03-10T20:23:55.965Z,100555.84
2023-03-10T20:26:22.970Z,100562.84
2023-03-10T20:28:49.846Z,100573.28
2023-03-10T20:31:17.935Z,100583.78
2023-03-10T20:33:44.668Z,100586.44
2023-03-10T20:36:13.953Z,100588.25
2023-03-10T20:38:44.027Z,100594.38
2023-03-10T20:41:16.583Z,100603.94
2023-03-10T20:43:43.973Z,100605.69
2023-03-10T20:46:11.058Z,100610.88
2023-03-10T20:48:37.742Z,100610.03
2023-03-10T20:51:04.451Z,100610.81
2023-03-10T20:53:33.260Z,100612.53
2023-03-10T20:56:00.546Z,100609.13
2023-03-10T20:58:27.225Z,100620.50
2023-03-10T21:00:53.880Z,100626.59
2023-03-10T21:03:21.560Z,100640.56
2023-03-10T21:05:48.224Z,100636.25
2023-03-10T21:08:14.857Z,100639.72
2023-03-10T21:10:41.732Z,100644.06
2023-03-10T21:13:08.325Z,100641.44
2023-03-10T21:15:35.059Z,100656.25
2023-03-10T21:18:01.601Z,100653.66
2023-03-10T21:20:28.171Z,100659.69
2023-03-10T21:22:54.727Z,100670.09
2023-03-10T21:25:24.518Z,100677.06
2023-03-10T21:27:53.294Z,100680.56
2023-03-10T21:30:21.376Z,100685.81
2023-03-10T21:32:48.057Z,100684.09
2023-03-10T21:35:14.626Z,100691.88
2023-03-10T21:37:42.871Z,100692.69
2023-03-10T21:40:12.004Z,100700.50
2023-03-10T21:42:38.567Z,100697.06
2023-03-10T21:45:05.846Z,100705.72
2023-03-10T21:47:32.443Z,100711.78
2023-03-10T21:49:58.949Z,100716.13
2023-03-10T21:52:25.768Z,100710.09
2023-03-10T21:54:52.310Z,100711.81
2023-03-10T21:57:18.915Z,100720.59
2023-03-10T21:59:45.608Z,100713.72
2023-03-10T22:02:35.497Z,100713.69
2023-03-10T22:05:02.070Z,100714.63
2023-03-10T22:07:28.604Z,100724.22
2023-03-10T22:09:55.125Z,100725.91
2023-03-10T22:12:21.657Z,100731.06
2023-03-10T22:14:50.351Z,100739.69
2023-03-10T22:17:16.934Z,100727.50
2023-03-10T22:19:43.754Z,100741.53
2023-03-10T22:22:10.314Z,100735.44
2023-03-10T22:24:36.916Z,100741.59
2023-03-10T22:27:03.494Z,100749.38
2023-03-10T22:29:30.037Z,100745.09
2023-03-10T22:31:57.836Z,100749.44
2023-03-10T22:34:24.343Z,100745.09
2023-03-10T22:36:51.002Z,100747.63
2023-03-10T22:39:18.092Z,100755.53
2023-03-10T22:41:44.626Z,100752.03
2023-03-10T22:44:11.146Z,100761.63
2023-03-10T22:46:37.883Z,100753.84
2023-03-10T22:49:04.682Z,100759.94
2023-03-10T22:51:31.245Z,100754.75
2023-03-10T22:53:57.804Z,100764.28
2023-03-10T22:56:24.299Z,100760.00
2023-03-10T22:58:50.954Z,100765.19
2023-03-10T23:01:17.711Z,100765.19
2023-03-10T23:03:44.369Z,100774.69
2023-03-10T23:06:13.546Z,100784.22
2023-03-10T23:08:43.421Z,100786.00
2023-03-10T23:11:10.964Z,100792.09
2023-03-10T23:13:37.746Z,100786.06
2023-03-10T23:16:04.796Z,100794.75
2023-03-10T23:18:31.443Z,100798.22
2023-03-10T23:20:58.015Z,100806.06
2023-03-10T23:23:24.664Z,100802.63
2023-03-10T23:25:51.851Z,100796.59
2023-03-10T23:28:20.010Z,100802.66
2023-03-10T23:30:47.864Z,100798.31
2023-03-10T23:33:17.630Z,100806.09
2023-03-10T23:35:46.313Z,100807.91
2023-03-10T23:38:12.927Z,100807.91
2023-03-10T23:40:39.432Z,100800.06
2023-03-10T23:43:07.016Z,100800.91
2023-03-10T23:45:35.550Z,100801.81
2023-03-10T23:48:02.431Z,100804.44
2023-03-10T23:50:32.636Z,100797.50
2023-03-10T23:52:59.743Z,100803.59
2023-03-10T23:55:28.922Z,100803.59
2023-03-10T23:57:55.585Z,100807.09
